ENNA Airport Information

Runway Information
Runway 16 Length 9147 ft width 148 ft Elevation 15 ft Threshold 302 ft Heading 176
Runway 34 Length 9147 ft Width 148 ft Elevation 25 ft Threshold 302 ft Heading 356
Airport Frequencies
Type TWR Name TWR Frequency 118.05 MHZ
Airport Navaids
Type VOR-DME Name Banak Frequency 114400 KHZ
Type TACAN Name Banak Frequency 111000 KHZ
Type NDB Name Banak Frequency 345 KHZ
Airport Weather Information & NOTAM
ADDS - METARS form results

(1643 UTC 01 December 2022)
Data provider http://aviationweather.gov/metar/data/
 
METAR text: ENNA 011620Z 14004KT 9999 BKN012 BKN039 M03/M05 Q1037 RMK WIND 1800FT 33006KT
Conditions at: ENNA (BANAK/LAKSELV (A, NO) observed 1620 UTC 01 December 2022
Temperature: -3.0°C (27°F)
Dewpoint: -5.0°C (23°F) [RH = 86%]
Pressure (altimeter): 30.62 inches Hg (1037.0 mb)
Winds: from the SE (140 degrees) at 5 MPH (4 knots; 2.1 m/s)
Visibility: 6 or more miles (10+ km)
Ceiling: 1200 feet AGL
Clouds: broken clouds at 1200 feet AGL
broken clouds at 3900 feet AGL
Weather: no significant weather observed at this time

METAR text: ENNA 011550Z 18003KT 9999 FEW031 SCT068 M04/M05 Q1037 RMK WIND 1800FT 33005KT
Conditions at: ENNA (BANAK/LAKSELV (A, NO) observed 1550 UTC 01 December 2022
Temperature: -4.0°C (25°F)
Dewpoint: -5.0°C (23°F) [RH = 93%]
Pressure (altimeter): 30.62 inches Hg (1037.0 mb)
Winds: from the S (180 degrees) at 3 MPH (3 knots; 1.5 m/s)
Visibility: 6 or more miles (10+ km)
Ceiling: at least 12,000 feet AGL
Clouds: few clouds at 3100 feet AGL
scattered clouds at 6800 feet AGL
Weather: no significant weather observed at this time

Forecast for: ENNA (BANAK/LAKSELV (A, NO)
Text: TAF ENNA 0112/0212 20005KT 9999 BKN025
Forecast period: 1200 UTC 01 December 2022 to 1200 UTC 02 December 2022
Forecast type: FROM: standard forecast or significant change
Winds: from the SSW (200 degrees) at 6 MPH (5 knots; 2.6 m/s)
Visibility: 6 or more miles (10+ km)
Ceiling: 2500 feet AGL
Clouds: broken clouds at 2500 feet AGL
Weather: no significant weather forecast for this period
Text: PROB40
Forecast period: 0200 to 0400 UTC 02 December 2022
Forecast type: TEMPORARY: The following changes expected for less than half the time period
Visibility: 2.49 miles (4.01 km)
Ceiling: indefinite ceiling with vertical visibility of 1400 feet AGL
Clouds: obscured sky
Weather: -SHSN  (light snow showers)
Text: TEMPO 0202/0204 4000 -SHSN VV014
Forecast period: 0400 to 0700 UTC 02 December 2022
Forecast type: TEMPORARY: The following changes expected for less than half the time period
Visibility: missing
Ceiling: 1400 feet AGL
Clouds: broken clouds at 1400 feet AGL
Weather: no significant weather forecast for this period